sensor_id;sensor_type;location;lat;lon;timestamp;P1;durP1;ratioP1;P2;durP2;ratioP2
21168;SDS011;10742;51.816;8.662;2024-02-14T00:01:53;8.10;;;3.70;;
21168;SDS011;10742;51.816;8.662;2024-02-14T00:05:14;6.90;;;3.57;;
21168;SDS011;10742;51.816;8.662;2024-02-14T00:08:36;8.90;;;3.67;;
21168;SDS011;10742;51.816;8.662;2024-02-14T00:11:58;10.33;;;3.70;;
21168;SDS011;10742;51.816;8.662;2024-02-14T00:15:19;10.43;;;3.47;;
21168;SDS011;10742;51.816;8.662;2024-02-14T00:18:40;7.10;;;3.13;;
21168;SDS011;10742;51.816;8.662;2024-02-14T00:22:02;8.80;;;3.27;;
21168;SDS011;10742;51.816;8.662;2024-02-14T00:25:23;9.23;;;3.13;;
21168;SDS011;10742;51.816;8.662;2024-02-14T00:28:44;9.23;;;3.27;;
21168;SDS011;10742;51.816;8.662;2024-02-14T00:32:05;4.27;;;2.50;;
21168;SDS011;10742;51.816;8.662;2024-02-14T00:35:26;7.83;;;2.57;;
21168;SDS011;10742;51.816;8.662;2024-02-14T00:38:47;5.57;;;2.53;;
21168;SDS011;10742;51.816;8.662;2024-02-14T00:42:08;7.47;;;2.80;;
21168;SDS011;10742;51.816;8.662;2024-02-14T00:45:29;8.93;;;2.60;;
21168;SDS011;10742;51.816;8.662;2024-02-14T00:48:50;6.70;;;2.40;;
21168;SDS011;10742;51.816;8.662;2024-02-14T00:52:11;9.30;;;2.80;;
21168;SDS011;10742;51.816;8.662;2024-02-14T00:55:32;6.63;;;2.37;;
21168;SDS011;10742;51.816;8.662;2024-02-14T00:58:54;4.97;;;2.47;;
21168;SDS011;10742;51.816;8.662;2024-02-14T01:02:15;4.73;;;2.00;;
21168;SDS011;10742;51.816;8.662;2024-02-14T01:05:36;3.23;;;2.30;;
21168;SDS011;10742;51.816;8.662;2024-02-14T01:08:57;6.90;;;2.47;;
21168;SDS011;10742;51.816;8.662;2024-02-14T01:12:18;5.53;;;2.20;;
21168;SDS011;10742;51.816;8.662;2024-02-14T01:15:39;4.87;;;2.30;;
21168;SDS011;10742;51.816;8.662;2024-02-14T01:19:00;3.00;;;2.30;;
21168;SDS011;10742;51.816;8.662;2024-02-14T01:22:21;3.73;;;2.10;;
21168;SDS011;10742;51.816;8.662;2024-02-14T01:25:42;5.07;;;2.37;;
21168;SDS011;10742;51.816;8.662;2024-02-14T01:29:04;3.83;;;2.43;;
21168;SDS011;10742;51.816;8.662;2024-02-14T01:32:26;4.30;;;2.23;;
21168;SDS011;10742;51.816;8.662;2024-02-14T01:35:49;8.00;;;2.30;;
21168;SDS011;10742;51.816;8.662;2024-02-14T01:39:10;7.93;;;2.50;;
21168;SDS011;10742;51.816;8.662;2024-02-14T01:42:31;6.23;;;2.47;;
21168;SDS011;10742;51.816;8.662;2024-02-14T01:45:52;5.03;;;2.23;;
21168;SDS011;10742;51.816;8.662;2024-02-14T01:49:14;5.23;;;2.10;;
21168;SDS011;10742;51.816;8.662;2024-02-14T01:52:36;5.43;;;2.20;;
21168;SDS011;10742;51.816;8.662;2024-02-14T01:56:01;7.00;;;2.20;;
21168;SDS011;10742;51.816;8.662;2024-02-14T01:59:22;9.20;;;2.37;;
21168;SDS011;10742;51.816;8.662;2024-02-14T02:02:45;5.73;;;2.13;;
21168;SDS011;10742;51.816;8.662;2024-02-14T02:06:12;5.60;;;2.03;;
21168;SDS011;10742;51.816;8.662;2024-02-14T02:09:33;4.90;;;2.00;;
21168;SDS011;10742;51.816;8.662;2024-02-14T02:12:58;6.43;;;2.20;;
21168;SDS011;10742;51.816;8.662;2024-02-14T02:16:22;4.97;;;2.00;;
21168;SDS011;10742;51.816;8.662;2024-02-14T02:19:43;3.83;;;1.90;;
21168;SDS011;10742;51.816;8.662;2024-02-14T02:23:04;6.87;;;2.67;;
21168;SDS011;10742;51.816;8.662;2024-02-14T02:26:25;2.97;;;1.70;;
21168;SDS011;10742;51.816;8.662;2024-02-14T02:29:46;5.43;;;2.03;;
21168;SDS011;10742;51.816;8.662;2024-02-14T02:33:08;5.53;;;1.90;;
21168;SDS011;10742;51.816;8.662;2024-02-14T02:36:29;5.50;;;1.93;;
21168;SDS011;10742;51.816;8.662;2024-02-14T02:39:50;5.07;;;2.07;;
21168;SDS011;10742;51.816;8.662;2024-02-14T02:43:12;4.23;;;1.53;;
21168;SDS011;10742;51.816;8.662;2024-02-14T02:46:33;5.80;;;2.30;;
21168;SDS011;10742;51.816;8.662;2024-02-14T02:49:54;4.87;;;1.90;;
21168;SDS011;10742;51.816;8.662;2024-02-14T02:53:17;4.40;;;1.97;;
21168;SDS011;10742;51.816;8.662;2024-02-14T02:56:39;3.33;;;1.90;;
21168;SDS011;10742;51.816;8.662;2024-02-14T03:00:01;6.63;;;1.90;;
21168;SDS011;10742;51.816;8.662;2024-02-14T03:03:23;4.13;;;1.87;;
21168;SDS011;10742;51.816;8.662;2024-02-14T03:06:47;3.80;;;1.63;;
21168;SDS011;10742;51.816;8.662;2024-02-14T03:10:08;7.93;;;2.13;;
21168;SDS011;10742;51.816;8.662;2024-02-14T03:13:29;8.27;;;2.33;;
21168;SDS011;10742;51.816;8.662;2024-02-14T03:16:50;5.83;;;1.90;;
21168;SDS011;10742;51.816;8.662;2024-02-14T03:20:12;4.73;;;1.70;;
21168;SDS011;10742;51.816;8.662;2024-02-14T03:23:35;2.17;;;1.50;;
21168;SDS011;10742;51.816;8.662;2024-02-14T03:26:56;2.27;;;1.70;;
21168;SDS011;10742;51.816;8.662;2024-02-14T03:30:17;4.60;;;1.80;;
21168;SDS011;10742;51.816;8.662;2024-02-14T03:33:39;3.67;;;2.17;;
21168;SDS011;10742;51.816;8.662;2024-02-14T03:37:00;3.03;;;1.50;;
21168;SDS011;10742;51.816;8.662;2024-02-14T03:40:22;5.07;;;2.10;;
21168;SDS011;10742;51.816;8.662;2024-02-14T03:43:44;5.53;;;1.97;;
21168;SDS011;10742;51.816;8.662;2024-02-14T03:47:05;4.10;;;1.77;;
21168;SDS011;10742;51.816;8.662;2024-02-14T03:50:26;3.87;;;1.40;;
21168;SDS011;10742;51.816;8.662;2024-02-14T03:53:47;2.97;;;1.37;;
21168;SDS011;10742;51.816;8.662;2024-02-14T03:57:08;2.97;;;1.70;;
21168;SDS011;10742;51.816;8.662;2024-02-14T04:00:30;4.23;;;1.60;;
21168;SDS011;10742;51.816;8.662;2024-02-14T04:03:51;2.80;;;1.40;;
21168;SDS011;10742;51.816;8.662;2024-02-14T04:07:12;3.10;;;1.50;;
21168;SDS011;10742;51.816;8.662;2024-02-14T04:10:33;4.50;;;1.77;;
21168;SDS011;10742;51.816;8.662;2024-02-14T04:13:54;5.40;;;1.53;;
21168;SDS011;10742;51.816;8.662;2024-02-14T04:17:16;1.93;;;1.40;;
21168;SDS011;10742;51.816;8.662;2024-02-14T04:20:37;1.80;;;1.40;;
21168;SDS011;10742;51.816;8.662;2024-02-14T04:23:58;1.97;;;1.50;;
21168;SDS011;10742;51.816;8.662;2024-02-14T04:27:19;4.83;;;1.40;;
21168;SDS011;10742;51.816;8.662;2024-02-14T04:30:40;4.90;;;1.33;;
21168;SDS011;10742;51.816;8.662;2024-02-14T04:34:02;3.97;;;2.20;;
21168;SDS011;10742;51.816;8.662;2024-02-14T04:37:23;3.10;;;1.30;;
21168;SDS011;10742;51.816;8.662;2024-02-14T04:40:45;1.93;;;1.17;;
21168;SDS011;10742;51.816;8.662;2024-02-14T04:44:06;2.63;;;1.40;;
21168;SDS011;10742;51.816;8.662;2024-02-14T04:47:27;4.93;;;1.57;;
21168;SDS011;10742;51.816;8.662;2024-02-14T04:50:50;2.93;;;1.33;;
21168;SDS011;10742;51.816;8.662;2024-02-14T04:54:13;2.67;;;1.30;;
21168;SDS011;10742;51.816;8.662;2024-02-14T04:57:37;3.30;;;1.70;;
21168;SDS011;10742;51.816;8.662;2024-02-14T05:00:58;5.00;;;1.90;;
21168;SDS011;10742;51.816;8.662;2024-02-14T05:04:19;4.40;;;1.70;;
21168;SDS011;10742;51.816;8.662;2024-02-14T05:07:41;3.03;;;1.40;;
21168;SDS011;10742;51.816;8.662;2024-02-14T05:11:02;6.40;;;1.70;;
21168;SDS011;10742;51.816;8.662;2024-02-14T05:14:24;1.93;;;1.50;;
21168;SDS011;10742;51.816;8.662;2024-02-14T05:17:46;3.70;;;1.63;;
21168;SDS011;10742;51.816;8.662;2024-02-14T05:21:09;3.00;;;1.93;;
21168;SDS011;10742;51.816;8.662;2024-02-14T05:24:30;2.67;;;1.50;;
21168;SDS011;10742;51.816;8.662;2024-02-14T05:27:51;2.00;;;1.53;;
21168;SDS011;10742;51.816;8.662;2024-02-14T05:31:12;3.00;;;1.80;;
21168;SDS011;10742;51.816;8.662;2024-02-14T05:34:33;2.23;;;1.60;;
21168;SDS011;10742;51.816;8.662;2024-02-14T05:37:55;3.07;;;1.40;;
21168;SDS011;10742;51.816;8.662;2024-02-14T05:41:16;3.90;;;1.60;;
21168;SDS011;10742;51.816;8.662;2024-02-14T05:44:38;4.30;;;1.40;;
21168;SDS011;10742;51.816;8.662;2024-02-14T05:48:00;3.97;;;1.67;;
21168;SDS011;10742;51.816;8.662;2024-02-14T05:51:21;3.43;;;1.53;;
21168;SDS011;10742;51.816;8.662;2024-02-14T05:54:42;4.90;;;1.77;;
21168;SDS011;10742;51.816;8.662;2024-02-14T05:58:03;6.50;;;1.93;;
21168;SDS011;10742;51.816;8.662;2024-02-14T06:01:24;2.00;;;1.60;;
21168;SDS011;10742;51.816;8.662;2024-02-14T06:04:45;3.20;;;1.70;;
21168;SDS011;10742;51.816;8.662;2024-02-14T06:08:07;3.33;;;1.60;;
21168;SDS011;10742;51.816;8.662;2024-02-14T06:11:28;2.60;;;1.53;;
21168;SDS011;10742;51.816;8.662;2024-02-14T06:14:49;2.23;;;1.40;;
21168;SDS011;10742;51.816;8.662;2024-02-14T06:18:10;4.97;;;2.00;;
21168;SDS011;10742;51.816;8.662;2024-02-14T06:21:31;17.43;;;3.00;;
21168;SDS011;10742;51.816;8.662;2024-02-14T06:24:53;4.17;;;1.90;;
21168;SDS011;10742;51.816;8.662;2024-02-14T06:28:14;13.87;;;2.87;;
21168;SDS011;10742;51.816;8.662;2024-02-14T06:31:35;4.53;;;1.80;;
21168;SDS011;10742;51.816;8.662;2024-02-14T06:34:56;4.80;;;1.87;;
21168;SDS011;10742;51.816;8.662;2024-02-14T06:38:17;5.87;;;1.70;;
21168;SDS011;10742;51.816;8.662;2024-02-14T06:41:38;3.27;;;1.67;;
21168;SDS011;10742;51.816;8.662;2024-02-14T06:45:00;3.63;;;1.90;;
21168;SDS011;10742;51.816;8.662;2024-02-14T06:48:22;3.80;;;1.90;;
21168;SDS011;10742;51.816;8.662;2024-02-14T06:51:44;3.83;;;1.90;;
21168;SDS011;10742;51.816;8.662;2024-02-14T06:55:05;3.33;;;1.70;;
21168;SDS011;10742;51.816;8.662;2024-02-14T06:58:28;3.50;;;1.80;;
21168;SDS011;10742;51.816;8.662;2024-02-14T07:01:50;3.13;;;1.83;;
21168;SDS011;10742;51.816;8.662;2024-02-14T07:05:12;3.23;;;1.90;;
21168;SDS011;10742;51.816;8.662;2024-02-14T07:08:34;4.27;;;1.60;;
21168;SDS011;10742;51.816;8.662;2024-02-14T07:11:56;2.57;;;1.73;;
21168;SDS011;10742;51.816;8.662;2024-02-14T07:15:19;3.17;;;1.93;;
21168;SDS011;10742;51.816;8.662;2024-02-14T07:18:40;2.90;;;2.00;;
21168;SDS011;10742;51.816;8.662;2024-02-14T07:22:01;3.43;;;2.30;;
21168;SDS011;10742;51.816;8.662;2024-02-14T07:25:23;2.53;;;1.53;;
21168;SDS011;10742;51.816;8.662;2024-02-14T07:28:44;4.43;;;1.90;;
21168;SDS011;10742;51.816;8.662;2024-02-14T07:32:05;2.83;;;2.23;;
21168;SDS011;10742;51.816;8.662;2024-02-14T07:35:27;3.87;;;2.10;;
21168;SDS011;10742;51.816;8.662;2024-02-14T07:38:48;3.20;;;2.23;;
21168;SDS011;10742;51.816;8.662;2024-02-14T07:42:11;2.33;;;1.80;;
21168;SDS011;10742;51.816;8.662;2024-02-14T07:45:32;2.50;;;2.00;;
21168;SDS011;10742;51.816;8.662;2024-02-14T07:48:53;3.20;;;2.13;;
21168;SDS011;10742;51.816;8.662;2024-02-14T07:52:14;4.00;;;2.03;;
21168;SDS011;10742;51.816;8.662;2024-02-14T07:55:35;4.80;;;2.20;;
21168;SDS011;10742;51.816;8.662;2024-02-14T07:58:57;3.23;;;2.00;;
21168;SDS011;10742;51.816;8.662;2024-02-14T08:02:19;3.03;;;2.07;;
21168;SDS011;10742;51.816;8.662;2024-02-14T08:05:40;3.47;;;2.10;;
21168;SDS011;10742;51.816;8.662;2024-02-14T08:09:03;3.60;;;1.87;;
21168;SDS011;10742;51.816;8.662;2024-02-14T08:12:27;3.80;;;2.17;;
21168;SDS011;10742;51.816;8.662;2024-02-14T08:15:48;4.07;;;2.17;;
21168;SDS011;10742;51.816;8.662;2024-02-14T08:19:10;2.80;;;2.07;;
21168;SDS011;10742;51.816;8.662;2024-02-14T08:22:31;3.00;;;2.10;;
21168;SDS011;10742;51.816;8.662;2024-02-14T08:25:52;2.10;;;1.80;;
21168;SDS011;10742;51.816;8.662;2024-02-14T08:29:13;3.53;;;1.60;;
21168;SDS011;10742;51.816;8.662;2024-02-14T08:32:35;4.53;;;2.10;;
21168;SDS011;10742;51.816;8.662;2024-02-14T08:35:55;4.37;;;1.93;;
21168;SDS011;10742;51.816;8.662;2024-02-14T08:39:17;2.03;;;1.83;;
21168;SDS011;10742;51.816;8.662;2024-02-14T08:42:38;3.00;;;2.07;;
21168;SDS011;10742;51.816;8.662;2024-02-14T08:45:59;3.87;;;2.00;;
21168;SDS011;10742;51.816;8.662;2024-02-14T08:49:21;4.90;;;1.90;;
21168;SDS011;10742;51.816;8.662;2024-02-14T08:52:42;2.97;;;2.20;;
21168;SDS011;10742;51.816;8.662;2024-02-14T08:56:03;3.70;;;1.90;;
21168;SDS011;10742;51.816;8.662;2024-02-14T08:59:24;2.50;;;1.87;;
21168;SDS011;10742;51.816;8.662;2024-02-14T09:02:45;3.47;;;2.13;;
21168;SDS011;10742;51.816;8.662;2024-02-14T09:06:09;2.73;;;1.93;;
21168;SDS011;10742;51.816;8.662;2024-02-14T09:09:30;3.43;;;2.30;;
21168;SDS011;10742;51.816;8.662;2024-02-14T09:12:51;3.27;;;1.67;;
21168;SDS011;10742;51.816;8.662;2024-02-14T09:16:13;2.77;;;2.17;;
21168;SDS011;10742;51.816;8.662;2024-02-14T09:19:36;3.30;;;2.30;;
21168;SDS011;10742;51.816;8.662;2024-02-14T09:22:57;3.87;;;2.20;;
21168;SDS011;10742;51.816;8.662;2024-02-14T09:26:19;6.97;;;2.50;;
21168;SDS011;10742;51.816;8.662;2024-02-14T09:29:40;4.53;;;2.40;;
21168;SDS011;10742;51.816;8.662;2024-02-14T09:33:01;3.87;;;2.27;;
21168;SDS011;10742;51.816;8.662;2024-02-14T09:36:22;5.57;;;2.43;;
21168;SDS011;10742;51.816;8.662;2024-02-14T09:39:44;4.00;;;2.43;;
21168;SDS011;10742;51.816;8.662;2024-02-14T09:43:05;3.10;;;2.30;;
21168;SDS011;10742;51.816;8.662;2024-02-14T09:46:40;3.80;;;2.13;;
21168;SDS011;10742;51.816;8.662;2024-02-14T09:50:03;4.90;;;2.23;;
21168;SDS011;10742;51.816;8.662;2024-02-14T09:53:25;2.80;;;2.40;;
21168;SDS011;10742;51.816;8.662;2024-02-14T09:56:50;4.43;;;2.40;;
21168;SDS011;10742;51.816;8.662;2024-02-14T10:00:14;4.27;;;2.50;;
21168;SDS011;10742;51.816;8.662;2024-02-14T10:03:35;2.43;;;2.10;;
21168;SDS011;10742;51.816;8.662;2024-02-14T10:06:57;5.70;;;2.13;;
21168;SDS011;10742;51.816;8.662;2024-02-14T10:10:18;4.90;;;2.40;;
21168;SDS011;10742;51.816;8.662;2024-02-14T10:13:41;5.77;;;3.00;;
21168;SDS011;10742;51.816;8.662;2024-02-14T10:17:06;3.47;;;2.37;;
21168;SDS011;10742;51.816;8.662;2024-02-14T10:20:30;5.23;;;2.77;;
21168;SDS011;10742;51.816;8.662;2024-02-14T10:23:54;7.13;;;2.47;;
21168;SDS011;10742;51.816;8.662;2024-02-14T10:27:18;4.97;;;2.50;;
21168;SDS011;10742;51.816;8.662;2024-02-14T10:30:44;2.40;;;2.00;;
21168;SDS011;10742;51.816;8.662;2024-02-14T10:34:06;3.23;;;1.90;;
21168;SDS011;10742;51.816;8.662;2024-02-14T10:37:29;2.40;;;2.00;;
21168;SDS011;10742;51.816;8.662;2024-02-14T10:40:51;5.57;;;2.20;;
21168;SDS011;10742;51.816;8.662;2024-02-14T10:44:14;2.60;;;1.87;;
21168;SDS011;10742;51.816;8.662;2024-02-14T10:47:35;4.57;;;2.30;;
21168;SDS011;10742;51.816;8.662;2024-02-14T10:51:02;2.90;;;2.20;;
21168;SDS011;10742;51.816;8.662;2024-02-14T10:54:27;4.50;;;2.33;;
21168;SDS011;10742;51.816;8.662;2024-02-14T10:57:49;2.93;;;2.20;;
21168;SDS011;10742;51.816;8.662;2024-02-14T11:01:11;3.33;;;2.00;;
21168;SDS011;10742;51.816;8.662;2024-02-14T11:04:33;4.53;;;2.30;;
21168;SDS011;10742;51.816;8.662;2024-02-14T11:07:54;4.00;;;2.10;;
21168;SDS011;10742;51.816;8.662;2024-02-14T11:11:16;4.87;;;2.23;;
21168;SDS011;10742;51.816;8.662;2024-02-14T11:14:37;3.50;;;2.23;;
21168;SDS011;10742;51.816;8.662;2024-02-14T11:18:04;5.30;;;2.60;;
21168;SDS011;10742;51.816;8.662;2024-02-14T11:21:28;3.10;;;2.20;;
21168;SDS011;10742;51.816;8.662;2024-02-14T11:24:50;5.00;;;2.30;;
21168;SDS011;10742;51.816;8.662;2024-02-14T11:28:15;5.63;;;2.80;;
21168;SDS011;10742;51.816;8.662;2024-02-14T11:31:37;29.93;;;15.73;;
21168;SDS011;10742;51.816;8.662;2024-02-14T11:35:00;11.27;;;7.30;;
21168;SDS011;10742;51.816;8.662;2024-02-14T11:38:22;4.83;;;3.20;;
21168;SDS011;10742;51.816;8.662;2024-02-14T11:41:46;3.57;;;2.43;;
21168;SDS011;10742;51.816;8.662;2024-02-14T11:45:07;3.77;;;1.90;;
21168;SDS011;10742;51.816;8.662;2024-02-14T11:48:30;2.70;;;2.20;;
21168;SDS011;10742;51.816;8.662;2024-02-14T11:51:52;5.43;;;2.20;;
21168;SDS011;10742;51.816;8.662;2024-02-14T11:55:15;7.73;;;2.70;;
21168;SDS011;10742;51.816;8.662;2024-02-14T11:58:38;8.40;;;4.40;;
21168;SDS011;10742;51.816;8.662;2024-02-14T12:01:59;3.67;;;2.10;;
21168;SDS011;10742;51.816;8.662;2024-02-14T12:05:23;1.83;;;1.60;;
21168;SDS011;10742;51.816;8.662;2024-02-14T12:08:45;7.87;;;3.90;;
21168;SDS011;10742;51.816;8.662;2024-02-14T12:12:06;45.03;;;19.83;;
21168;SDS011;10742;51.816;8.662;2024-02-14T12:15:27;40.80;;;17.57;;
21168;SDS011;10742;51.816;8.662;2024-02-14T12:18:48;34.27;;;14.70;;
21168;SDS011;10742;51.816;8.662;2024-02-14T12:22:09;13.57;;;5.53;;
21168;SDS011;10742;51.816;8.662;2024-02-14T12:25:38;12.70;;;4.50;;
21168;SDS011;10742;51.816;8.662;2024-02-14T12:29:03;4.20;;;2.40;;
21168;SDS011;10742;51.816;8.662;2024-02-14T12:32:24;2.90;;;2.10;;
21168;SDS011;10742;51.816;8.662;2024-02-14T12:35:46;2.27;;;1.90;;
21168;SDS011;10742;51.816;8.662;2024-02-14T12:39:09;8.73;;;4.87;;
21168;SDS011;10742;51.816;8.662;2024-02-14T12:42:33;6.27;;;3.03;;
21168;SDS011;10742;51.816;8.662;2024-02-14T12:45:54;2.83;;;1.93;;
21168;SDS011;10742;51.816;8.662;2024-02-14T12:49:15;4.93;;;2.20;;
21168;SDS011;10742;51.816;8.662;2024-02-14T12:52:37;2.50;;;1.60;;
21168;SDS011;10742;51.816;8.662;2024-02-14T12:55:58;5.83;;;2.20;;
21168;SDS011;10742;51.816;8.662;2024-02-14T12:59:20;2.77;;;2.00;;
21168;SDS011;10742;51.816;8.662;2024-02-14T13:02:41;5.47;;;3.20;;
21168;SDS011;10742;51.816;8.662;2024-02-14T13:06:03;5.03;;;2.90;;
21168;SDS011;10742;51.816;8.662;2024-02-14T13:09:24;4.70;;;2.50;;
21168;SDS011;10742;51.816;8.662;2024-02-14T13:12:45;2.90;;;2.40;;
21168;SDS011;10742;51.816;8.662;2024-02-14T13:16:06;6.53;;;3.20;;
21168;SDS011;10742;51.816;8.662;2024-02-14T13:19:27;6.50;;;3.87;;
21168;SDS011;10742;51.816;8.662;2024-02-14T13:22:49;3.27;;;2.50;;
21168;SDS011;10742;51.816;8.662;2024-02-14T13:26:10;4.43;;;2.27;;
21168;SDS011;10742;51.816;8.662;2024-02-14T13:29:31;4.93;;;2.40;;
21168;SDS011;10742;51.816;8.662;2024-02-14T13:32:53;12.60;;;6.33;;
21168;SDS011;10742;51.816;8.662;2024-02-14T13:36:14;2.67;;;2.47;;
21168;SDS011;10742;51.816;8.662;2024-02-14T13:39:37;10.00;;;3.70;;
21168;SDS011;10742;51.816;8.662;2024-02-14T13:42:58;4.43;;;2.80;;
21168;SDS011;10742;51.816;8.662;2024-02-14T13:46:19;4.20;;;2.03;;
21168;SDS011;10742;51.816;8.662;2024-02-14T13:49:40;3.17;;;2.20;;
21168;SDS011;10742;51.816;8.662;2024-02-14T13:53:02;2.67;;;1.73;;
21168;SDS011;10742;51.816;8.662;2024-02-14T13:56:23;3.47;;;2.10;;
21168;SDS011;10742;51.816;8.662;2024-02-14T13:59:45;48.90;;;21.50;;
21168;SDS011;10742;51.816;8.662;2024-02-14T14:03:07;111.87;;;31.63;;
21168;SDS011;10742;51.816;8.662;2024-02-14T14:06:28;463.70;;;104.97;;
21168;SDS011;10742;51.816;8.662;2024-02-14T14:09:50;238.30;;;56.43;;
21168;SDS011;10742;51.816;8.662;2024-02-14T14:13:11;464.27;;;97.33;;
21168;SDS011;10742;51.816;8.662;2024-02-14T14:16:34;61.57;;;22.10;;
21168;SDS011;10742;51.816;8.662;2024-02-14T14:19:55;35.77;;;18.00;;
21168;SDS011;10742;51.816;8.662;2024-02-14T14:23:16;19.60;;;9.13;;
21168;SDS011;10742;51.816;8.662;2024-02-14T14:26:37;7.80;;;3.50;;
21168;SDS011;10742;51.816;8.662;2024-02-14T14:29:58;6.50;;;2.97;;
21168;SDS011;10742;51.816;8.662;2024-02-14T14:33:20;5.53;;;3.43;;
21168;SDS011;10742;51.816;8.662;2024-02-14T14:36:41;3.70;;;2.37;;
21168;SDS011;10742;51.816;8.662;2024-02-14T14:40:02;6.03;;;3.20;;
21168;SDS011;10742;51.816;8.662;2024-02-14T14:43:25;5.30;;;2.40;;
21168;SDS011;10742;51.816;8.662;2024-02-14T14:46:46;4.97;;;2.57;;
21168;SDS011;10742;51.816;8.662;2024-02-14T14:50:07;4.80;;;2.30;;
21168;SDS011;10742;51.816;8.662;2024-02-14T14:53:28;4.87;;;2.40;;
21168;SDS011;10742;51.816;8.662;2024-02-14T14:56:53;6.73;;;2.40;;
21168;SDS011;10742;51.816;8.662;2024-02-14T15:00:15;6.47;;;2.60;;
21168;SDS011;10742;51.816;8.662;2024-02-14T15:03:37;3.63;;;2.20;;
21168;SDS011;10742;51.816;8.662;2024-02-14T15:06:58;7.27;;;2.30;;
21168;SDS011;10742;51.816;8.662;2024-02-14T15:10:20;4.03;;;1.90;;
21168;SDS011;10742;51.816;8.662;2024-02-14T15:13:42;5.00;;;2.20;;
21168;SDS011;10742;51.816;8.662;2024-02-14T15:17:05;4.30;;;2.00;;
21168;SDS011;10742;51.816;8.662;2024-02-14T15:20:26;2.57;;;1.50;;
21168;SDS011;10742;51.816;8.662;2024-02-14T15:23:47;2.93;;;2.20;;
21168;SDS011;10742;51.816;8.662;2024-02-14T15:27:08;4.00;;;2.00;;
21168;SDS011;10742;51.816;8.662;2024-02-14T15:30:31;6.80;;;2.47;;
21168;SDS011;10742;51.816;8.662;2024-02-14T15:34:11;5.03;;;1.93;;
21168;SDS011;10742;51.816;8.662;2024-02-14T15:37:32;6.33;;;1.60;;
21168;SDS011;10742;51.816;8.662;2024-02-14T15:40:54;2.10;;;1.60;;
21168;SDS011;10742;51.816;8.662;2024-02-14T15:44:21;1.83;;;1.40;;
21168;SDS011;10742;51.816;8.662;2024-02-14T15:47:43;1.97;;;1.50;;
21168;SDS011;10742;51.816;8.662;2024-02-14T15:51:05;2.77;;;1.77;;
21168;SDS011;10742;51.816;8.662;2024-02-14T15:54:26;3.10;;;1.57;;
21168;SDS011;10742;51.816;8.662;2024-02-14T15:57:47;2.43;;;1.40;;
21168;SDS011;10742;51.816;8.662;2024-02-14T16:01:08;4.50;;;1.97;;
21168;SDS011;10742;51.816;8.662;2024-02-14T16:04:30;5.33;;;1.80;;
21168;SDS011;10742;51.816;8.662;2024-02-14T16:07:50;3.10;;;1.87;;
21168;SDS011;10742;51.816;8.662;2024-02-14T16:11:12;3.53;;;1.90;;
21168;SDS011;10742;51.816;8.662;2024-02-14T16:14:34;2.43;;;1.67;;
21168;SDS011;10742;51.816;8.662;2024-02-14T16:17:57;2.90;;;1.57;;
21168;SDS011;10742;51.816;8.662;2024-02-14T16:21:18;1.97;;;1.60;;
21168;SDS011;10742;51.816;8.662;2024-02-14T16:24:39;1.83;;;1.50;;
21168;SDS011;10742;51.816;8.662;2024-02-14T16:28:03;2.47;;;1.40;;
21168;SDS011;10742;51.816;8.662;2024-02-14T16:31:26;2.67;;;1.00;;
21168;SDS011;10742;51.816;8.662;2024-02-14T16:34:47;1.90;;;1.30;;
21168;SDS011;10742;51.816;8.662;2024-02-14T16:38:09;3.13;;;1.50;;
21168;SDS011;10742;51.816;8.662;2024-02-14T16:41:30;2.67;;;1.53;;
21168;SDS011;10742;51.816;8.662;2024-02-14T16:44:51;5.90;;;1.50;;
21168;SDS011;10742;51.816;8.662;2024-02-14T16:48:13;1.93;;;1.63;;
21168;SDS011;10742;51.816;8.662;2024-02-14T16:51:34;4.77;;;2.07;;
21168;SDS011;10742;51.816;8.662;2024-02-14T16:54:56;3.40;;;1.93;;
21168;SDS011;10742;51.816;8.662;2024-02-14T16:58:17;3.00;;;1.83;;
21168;SDS011;10742;51.816;8.662;2024-02-14T17:01:37;4.20;;;1.73;;
21168;SDS011;10742;51.816;8.662;2024-02-14T17:04:58;2.07;;;1.27;;
21168;SDS011;10742;51.816;8.662;2024-02-14T17:08:19;1.73;;;1.30;;
21168;SDS011;10742;51.816;8.662;2024-02-14T17:11:41;4.33;;;2.10;;
21168;SDS011;10742;51.816;8.662;2024-02-14T17:15:02;3.07;;;2.00;;
21168;SDS011;10742;51.816;8.662;2024-02-14T17:18:26;2.70;;;1.67;;
21168;SDS011;10742;51.816;8.662;2024-02-14T17:21:49;3.70;;;2.07;;
21168;SDS011;10742;51.816;8.662;2024-02-14T17:25:11;2.90;;;2.33;;
21168;SDS011;10742;51.816;8.662;2024-02-14T17:28:32;2.87;;;2.13;;
21168;SDS011;10742;51.816;8.662;2024-02-14T17:31:53;5.97;;;2.80;;
21168;SDS011;10742;51.816;8.662;2024-02-14T17:35:14;4.83;;;2.40;;
21168;SDS011;10742;51.816;8.662;2024-02-14T17:38:35;2.50;;;1.70;;
21168;SDS011;10742;51.816;8.662;2024-02-14T17:41:56;3.30;;;1.80;;
21168;SDS011;10742;51.816;8.662;2024-02-14T17:45:17;3.60;;;1.90;;
21168;SDS011;10742;51.816;8.662;2024-02-14T17:48:39;3.00;;;2.03;;
21168;SDS011;10742;51.816;8.662;2024-02-14T17:52:00;3.93;;;1.80;;
21168;SDS011;10742;51.816;8.662;2024-02-14T17:55:21;3.93;;;2.60;;
21168;SDS011;10742;51.816;8.662;2024-02-14T17:58:42;2.77;;;1.93;;
21168;SDS011;10742;51.816;8.662;2024-02-14T18:02:03;3.83;;;2.40;;
21168;SDS011;10742;51.816;8.662;2024-02-14T18:05:24;3.33;;;2.30;;
21168;SDS011;10742;51.816;8.662;2024-02-14T18:08:45;2.87;;;2.10;;
21168;SDS011;10742;51.816;8.662;2024-02-14T18:12:07;3.73;;;2.00;;
21168;SDS011;10742;51.816;8.662;2024-02-14T18:15:28;1.93;;;1.70;;
21168;SDS011;10742;51.816;8.662;2024-02-14T18:18:49;2.40;;;1.90;;
21168;SDS011;10742;51.816;8.662;2024-02-14T18:22:11;3.30;;;1.97;;
21168;SDS011;10742;51.816;8.662;2024-02-14T18:25:32;5.67;;;2.83;;
21168;SDS011;10742;51.816;8.662;2024-02-14T18:28:54;39.93;;;14.93;;
21168;SDS011;10742;51.816;8.662;2024-02-14T18:32:15;13.07;;;4.93;;
21168;SDS011;10742;51.816;8.662;2024-02-14T18:35:37;7.83;;;3.20;;
21168;SDS011;10742;51.816;8.662;2024-02-14T18:38:59;5.80;;;2.37;;
21168;SDS011;10742;51.816;8.662;2024-02-14T18:42:21;1.73;;;1.40;;
21168;SDS011;10742;51.816;8.662;2024-02-14T18:45:42;2.50;;;1.63;;
21168;SDS011;10742;51.816;8.662;2024-02-14T18:49:03;1.60;;;1.50;;
21168;SDS011;10742;51.816;8.662;2024-02-14T18:52:26;1.67;;;1.57;;
21168;SDS011;10742;51.816;8.662;2024-02-14T18:55:47;2.67;;;2.03;;
21168;SDS011;10742;51.816;8.662;2024-02-14T18:59:08;4.27;;;1.90;;
21168;SDS011;10742;51.816;8.662;2024-02-14T19:02:29;2.90;;;2.10;;
21168;SDS011;10742;51.816;8.662;2024-02-14T19:05:53;1.60;;;1.50;;
21168;SDS011;10742;51.816;8.662;2024-02-14T19:09:14;3.23;;;1.50;;
21168;SDS011;10742;51.816;8.662;2024-02-14T19:12:35;1.93;;;1.20;;
21168;SDS011;10742;51.816;8.662;2024-02-14T19:15:56;1.83;;;1.30;;
21168;SDS011;10742;51.816;8.662;2024-02-14T19:19:18;4.43;;;2.23;;
21168;SDS011;10742;51.816;8.662;2024-02-14T19:22:40;1.83;;;1.30;;
21168;SDS011;10742;51.816;8.662;2024-02-14T19:26:07;1.87;;;1.47;;
21168;SDS011;10742;51.816;8.662;2024-02-14T19:29:29;1.40;;;1.30;;
21168;SDS011;10742;51.816;8.662;2024-02-14T19:32:50;2.60;;;1.93;;
21168;SDS011;10742;51.816;8.662;2024-02-14T19:36:11;27.60;;;11.30;;
21168;SDS011;10742;51.816;8.662;2024-02-14T19:39:32;28.40;;;11.63;;
21168;SDS011;10742;51.816;8.662;2024-02-14T19:42:54;7.73;;;3.43;;
21168;SDS011;10742;51.816;8.662;2024-02-14T19:46:16;5.90;;;3.10;;
21168;SDS011;10742;51.816;8.662;2024-02-14T19:49:37;4.73;;;2.70;;
21168;SDS011;10742;51.816;8.662;2024-02-14T19:52:58;2.93;;;1.90;;
21168;SDS011;10742;51.816;8.662;2024-02-14T19:56:19;2.20;;;1.50;;
21168;SDS011;10742;51.816;8.662;2024-02-14T19:59:41;1.53;;;1.43;;
21168;SDS011;10742;51.816;8.662;2024-02-14T20:03:02;2.47;;;1.40;;
21168;SDS011;10742;51.816;8.662;2024-02-14T20:06:24;3.73;;;1.30;;
21168;SDS011;10742;51.816;8.662;2024-02-14T20:09:46;3.47;;;1.50;;
21168;SDS011;10742;51.816;8.662;2024-02-14T20:13:07;1.93;;;1.70;;